createdAt,value
2023-03-28T00:01:02.663Z,72.47
2023-03-28T00:03:29.826Z,72.41
2023-03-28T00:06:02.805Z,72.98
2023-03-28T00:08:30.678Z,73.04
2023-03-28T00:11:20.756Z,72.82
2023-03-28T00:13:58.316Z,73.14
2023-03-28T00:16:32.235Z,73.53
2023-03-28T00:19:00.972Z,73.42
2023-03-28T00:21:30.866Z,73.38
2023-03-28T00:24:01.920Z,73.47
2023-03-28T00:26:34.339Z,73.25
2023-03-28T00:29:02.905Z,73.50
2023-03-28T00:31:30.810Z,74.09
2023-03-28T00:33:57.522Z,73.66
2023-03-28T00:36:29.211Z,73.17
2023-03-28T00:38:58.088Z,73.55
2023-03-28T00:41:26.889Z,72.92
2023-03-28T00:43:55.132Z,73.08
2023-03-28T00:46:24.751Z,72.51
2023-03-28T00:49:13.175Z,72.59
2023-03-28T00:51:47.588Z,72.55
2023-03-28T00:54:18.720Z,72.08
2023-03-28T00:56:52.004Z,71.84
2023-03-28T00:59:21.230Z,71.75
2023-03-28T01:01:47.814Z,71.50
2023-03-28T01:04:20.316Z,71.41
2023-03-28T01:06:51.550Z,71.86
2023-03-28T01:09:19.016Z,71.50
2023-03-28T01:11:46.290Z,71.30
2023-03-28T01:14:17.774Z,71.99
2023-03-28T01:16:47.698Z,71.83
2023-03-28T01:19:42.788Z,72.23
2023-03-28T01:22:12.921Z,71.35
2023-03-28T01:25:24.625Z,71.75
2023-03-28T01:28:35.748Z,71.55
2023-03-28T01:31:33.328Z,70.87
2023-03-28T01:34:37.372Z,71.64
2023-03-28T01:37:16.684Z,71.88
2023-03-28T01:40:01.177Z,72.02
2023-03-28T01:43:00.283Z,72.27
2023-03-28T01:45:44.997Z,72.14
2023-03-28T01:48:22.136Z,72.56
2023-03-28T01:50:56.333Z,72.99
2023-03-28T01:53:43.444Z,72.81
2023-03-28T01:56:45.481Z,73.31
2023-03-28T01:59:30.820Z,73.70
2023-03-28T02:01:57.240Z,72.93
2023-03-28T02:04:26.029Z,73.30
2023-03-28T02:06:54.138Z,73.64
2023-03-28T02:09:24.971Z,73.76
2023-03-28T02:11:59.737Z,73.85
2023-03-28T02:14:32.553Z,74.09
2023-03-28T02:17:04.806Z,74.32
2023-03-28T02:19:36.010Z,75.03
2023-03-28T02:22:31.504Z,74.93
2023-03-28T02:24:58.301Z,74.55
2023-03-28T02:27:24.844Z,75.19
2023-03-28T02:29:54.369Z,75.09
2023-03-28T02:32:21.934Z,75.37
2023-03-28T02:34:51.636Z,75.67
2023-03-28T02:37:43.250Z,75.78
2023-03-28T02:40:34.184Z,76.06
2023-03-28T02:43:39.257Z,76.34
2023-03-28T02:46:26.783Z,76.56
2023-03-28T02:49:22.237Z,76.42
2023-03-28T02:52:09.503Z,76.79
2023-03-28T02:55:00.195Z,77.55
2023-03-28T02:57:31.475Z,77.38
2023-03-28T03:00:12.611Z,77.66
2023-03-28T03:02:44.256Z,77.94
2023-03-28T03:05:11.712Z,77.84
2023-03-28T03:07:38.724Z,78.01
2023-03-28T03:10:11.334Z,78.45
2023-03-28T03:12:38.056Z,78.30
2023-03-28T03:15:05.626Z,78.55
2023-03-28T03:17:32.481Z,78.83
2023-03-28T03:19:59.355Z,78.81
2023-03-28T03:22:25.906Z,78.46
2023-03-28T03:24:52.358Z,78.59
2023-03-28T03:27:19.756Z,79.14
2023-03-28T03:29:46.549Z,78.83
2023-03-28T03:32:12.982Z,78.50
2023-03-28T03:34:41.323Z,78.45
2023-03-28T03:37:09.529Z,78.30
2023-03-28T03:39:38.900Z,78.51
2023-03-28T03:42:05.636Z,78.59
2023-03-28T03:44:32.312Z,79.28
2023-03-28T03:46:58.849Z,79.10
2023-03-28T03:49:25.425Z,79.12
2023-03-28T03:51:52.155Z,78.82
2023-03-28T03:54:18.866Z,79.44
2023-03-28T03:56:45.950Z,79.23
2023-03-28T03:59:12.690Z,79.81
2023-03-28T04:01:39.945Z,79.65
2023-03-28T04:04:07.788Z,79.21
2023-03-28T04:06:34.554Z,79.33
2023-03-28T04:09:03.041Z,79.17
2023-03-28T04:11:29.556Z,78.93
2023-03-28T04:13:56.006Z,79.21
2023-03-28T04:16:23.946Z,79.38
2023-03-28T04:18:53.254Z,79.14
2023-03-28T04:21:27.598Z,79.59
2023-03-28T04:23:55.255Z,79.48
2023-03-28T04:26:25.822Z,79.77
2023-03-28T04:28:53.361Z,80.07
2023-03-28T04:31:21.818Z,80.38
2023-03-28T04:33:49.288Z,80.25
2023-03-28T04:36:16.880Z,80.93
2023-03-28T04:38:45.816Z,81.04
2023-03-28T04:41:16.926Z,81.62
2023-03-28T04:43:44.308Z,81.39
2023-03-28T04:46:11.152Z,81.74
2023-03-28T04:48:37.709Z,81.86
2023-03-28T04:51:04.426Z,82.05
2023-03-28T04:53:30.909Z,82.41
2023-03-28T04:55:57.477Z,82.32
2023-03-28T04:58:24.101Z,82.38
2023-03-28T05:00:51.006Z,82.63
2023-03-28T05:03:20.363Z,82.92
2023-03-28T05:05:48.842Z,82.92
2023-03-28T05:08:17.505Z,82.77
2023-03-28T05:10:47.325Z,83.09
2023-03-28T05:13:13.808Z,82.82
2023-03-28T05:15:40.412Z,82.89
2023-03-28T05:18:06.970Z,82.91
2023-03-28T05:20:34.436Z,83.39
2023-03-28T05:23:02.407Z,83.42
2023-03-28T05:25:29.563Z,84.11
2023-03-28T05:27:56.221Z,84.37
2023-03-28T05:30:22.838Z,84.63
2023-03-28T05:32:49.667Z,85.07
2023-03-28T05:35:16.802Z,85.14
2023-03-28T05:37:46.793Z,85.41
2023-03-28T05:40:22.499Z,85.83
2023-03-28T05:42:48.983Z,85.34
2023-03-28T05:45:15.700Z,85.53
2023-03-28T05:47:42.187Z,85.32
2023-03-28T05:50:10.826Z,85.62
2023-03-28T05:52:37.868Z,85.57
2023-03-28T05:55:05.678Z,86.08
2023-03-28T05:57:32.549Z,86.06
2023-03-28T05:59:59.304Z,86.44
2023-03-28T06:02:26.365Z,86.21
2023-03-28T06:04:54.660Z,87.29
2023-03-28T06:07:35.132Z,87.59
2023-03-28T06:10:07.066Z,88.10
2023-03-28T06:12:33.743Z,88.15
2023-03-28T06:15:00.428Z,88.18
2023-03-28T06:17:27.094Z,88.70
2023-03-28T06:19:53.658Z,89.03
2023-03-28T06:22:20.496Z,88.99
2023-03-28T06:24:47.063Z,89.16
2023-03-28T06:27:13.574Z,89.27
2023-03-28T06:29:40.056Z,89.46
2023-03-28T06:32:06.937Z,89.83
2023-03-28T06:34:33.602Z,89.97
2023-03-28T06:37:01.793Z,90.25
2023-03-28T06:39:28.429Z,90.54
2023-03-28T06:41:54.876Z,90.74
2023-03-28T06:44:21.449Z,91.00
2023-03-28T06:46:47.968Z,90.74
2023-03-28T06:49:14.681Z,90.82
2023-03-28T06:51:41.250Z,90.92
2023-03-28T06:54:07.825Z,90.12
2023-03-28T06:56:34.387Z,88.93
2023-03-28T06:59:00.906Z,88.06
2023-03-28T07:01:27.461Z,86.31
2023-03-28T07:03:54.684Z,85.87
2023-03-28T07:06:21.411Z,85.00
2023-03-28T07:08:47.943Z,84.62
2023-03-28T07:11:14.474Z,83.64
2023-03-28T07:13:41.158Z,83.02
2023-03-28T07:16:11.486Z,82.23
2023-03-28T07:18:38.698Z,81.49
2023-03-28T07:21:07.414Z,81.07
2023-03-28T07:23:34.028Z,80.33
2023-03-28T07:26:00.551Z,79.79
2023-03-28T07:28:27.921Z,79.11
2023-03-28T07:30:54.634Z,78.03
2023-03-28T07:33:30.873Z,77.00
2023-03-28T07:36:14.664Z,76.43
2023-03-28T07:38:41.409Z,73.72
2023-03-28T07:41:08.116Z,73.33
2023-03-28T07:43:35.015Z,72.77
2023-03-28T07:46:08.059Z,72.55
2023-03-28T07:48:36.351Z,72.43
2023-03-28T07:51:04.331Z,72.09
2023-03-28T07:53:30.809Z,71.61
2023-03-28T07:55:57.457Z,71.68
2023-03-28T07:58:24.335Z,71.95
2023-03-28T08:00:51.013Z,71.78
2023-03-28T08:03:23.771Z,71.97
2023-03-28T08:05:53.802Z,71.26
2023-03-28T08:08:21.746Z,71.13
2023-03-28T08:10:51.621Z,71.13
2023-03-28T08:13:20.895Z,70.62
2023-03-28T08:15:55.276Z,70.56
2023-03-28T08:18:24.661Z,69.82
2023-03-28T08:20:57.149Z,68.40
2023-03-28T08:23:23.862Z,67.75
2023-03-28T08:25:51.218Z,67.79
2023-03-28T08:28:22.136Z,67.87
2023-03-28T08:30:48.690Z,68.04
2023-03-28T08:33:15.632Z,68.48
2023-03-28T08:35:42.325Z,67.33
2023-03-28T08:38:11.189Z,66.05
2023-03-28T08:40:43.463Z,65.98
2023-03-28T08:43:31.327Z,64.85
2023-03-28T08:45:59.918Z,62.79
2023-03-28T08:48:34.214Z,62.78
2023-03-28T08:51:06.935Z,62.90
2023-03-28T08:53:43.654Z,62.05
2023-03-28T08:56:15.539Z,61.72
2023-03-28T08:59:04.804Z,62.46
2023-03-28T09:01:32.888Z,60.87
2023-03-28T09:04:01.185Z,60.50
2023-03-28T09:06:29.384Z,59.08
2023-03-28T09:09:17.607Z,59.30
2023-03-28T09:11:47.377Z,59.45
2023-03-28T09:14:40.953Z,58.44
2023-03-28T09:17:22.185Z,59.31
2023-03-28T09:20:24.043Z,59.22
2023-03-28T09:23:12.390Z,57.12
2023-03-28T09:26:01.788Z,57.91
2023-03-28T09:28:48.206Z,58.42
2023-03-28T09:31:17.480Z,57.84
2023-03-28T09:33:47.159Z,57.51
2023-03-28T09:36:23.271Z,56.86
2023-03-28T09:38:54.930Z,56.72
2023-03-28T09:41:29.805Z,55.76
2023-03-28T09:44:00.945Z,53.93
2023-03-28T09:46:38.478Z,54.55
2023-03-28T09:49:05.207Z,52.32
2023-03-28T09:51:31.922Z,52.15
2023-03-28T09:53:58.503Z,49.93
2023-03-28T09:56:30.008Z,49.87
2023-03-28T09:58:59.459Z,49.64
2023-03-28T10:01:46.149Z,50.34
2023-03-28T10:04:31.432Z,50.18
2023-03-28T10:07:10.092Z,50.45
2023-03-28T10:09:54.817Z,50.88
2023-03-28T10:12:38.254Z,51.42
2023-03-28T10:15:07.930Z,52.45
2023-03-28T10:17:37.378Z,53.31
2023-03-28T10:20:15.361Z,53.52
2023-03-28T10:22:42.793Z,53.17
2023-03-28T10:25:17.510Z,54.13
2023-03-28T10:27:44.585Z,54.43
2023-03-28T10:30:13.990Z,54.80
2023-03-28T10:32:41.364Z,53.09
2023-03-28T10:35:31.059Z,53.36
2023-03-28T10:38:03.577Z,51.99
2023-03-28T10:40:31.734Z,52.27
2023-03-28T10:42:59.264Z,51.48
2023-03-28T10:45:39.562Z,51.92
2023-03-28T10:48:11.848Z,52.11
2023-03-28T10:51:04.019Z,51.65
2023-03-28T10:54:04.666Z,52.06
2023-03-28T10:56:38.551Z,51.12
2023-03-28T10:59:40.331Z,50.51
2023-03-28T11:02:26.268Z,49.86
2023-03-28T11:05:28.678Z,49.24
2023-03-28T11:08:19.447Z,50.02
2023-03-28T11:11:01.009Z,50.06
2023-03-28T11:14:00.320Z,50.23
2023-03-28T11:16:42.295Z,48.69
2023-03-28T11:19:17.627Z,48.58
2023-03-28T11:22:05.516Z,47.75
2023-03-28T11:25:22.754Z,48.64
2023-03-28T11:28:15.546Z,47.42
2023-03-28T11:30:47.312Z,47.84
2023-03-28T11:33:32.441Z,48.74
2023-03-28T11:36:05.467Z,47.09
2023-03-28T11:38:32.462Z,46.82
2023-03-28T11:41:04.413Z,47.27
2023-03-28T11:43:41.815Z,46.72
2023-03-28T11:46:16.674Z,46.38
2023-03-28T11:48:55.058Z,45.61
2023-03-28T11:51:35.310Z,47.39
2023-03-28T11:54:05.410Z,48.21
2023-03-28T11:56:53.439Z,46.68
2023-03-28T11:59:42.801Z,46.48
2023-03-28T12:02:27.718Z,49.08
2023-03-28T12:05:02.479Z,50.34
2023-03-28T12:07:38.569Z,51.00
2023-03-28T12:10:41.330Z,51.80
2023-03-28T12:13:34.708Z,52.47
2023-03-28T12:16:08.968Z,53.04
2023-03-28T12:18:52.333Z,54.85
2023-03-28T12:21:18.810Z,56.04
2023-03-28T12:24:13.684Z,57.41
2023-03-28T12:27:04.573Z,57.64
2023-03-28T12:29:36.186Z,58.74
2023-03-28T12:32:25.006Z,59.51
2023-03-28T12:34:59.577Z,60.10
2023-03-28T12:37:54.335Z,61.30
2023-03-28T12:40:29.313Z,61.71
2023-03-28T12:42:58.092Z,62.64
2023-03-28T12:45:40.583Z,63.20
2023-03-28T12:48:13.416Z,62.69
2023-03-28T12:50:52.444Z,64.05
2023-03-28T12:53:21.733Z,64.70
2023-03-28T12:55:49.926Z,65.06
2023-03-28T12:58:21.324Z,66.79
2023-03-28T13:01:17.052Z,66.92
2023-03-28T13:03:51.904Z,66.85
2023-03-28T13:06:28.433Z,66.27
2023-03-28T13:08:55.347Z,67.87
2023-03-28T13:11:29.572Z,67.65
2023-03-28T13:14:01.897Z,67.18
2023-03-28T13:16:45.780Z,67.80
2023-03-28T13:19:16.404Z,66.80
2023-03-28T13:22:00.482Z,66.18
2023-03-28T13:24:33.530Z,65.83
2023-03-28T13:27:15.799Z,65.30
2023-03-28T13:29:47.596Z,63.90
2023-03-28T13:32:23.066Z,63.99
2023-03-28T13:34:57.723Z,63.05
2023-03-28T13:37:26.707Z,62.09
2023-03-28T13:39:59.256Z,61.72
2023-03-28T13:42:28.712Z,61.22
2023-03-28T13:45:00.525Z,60.90
2023-03-28T13:47:35.038Z,61.15
2023-03-28T13:50:14.551Z,60.44
2023-03-28T13:52:41.214Z,59.06
2023-03-28T13:55:34.540Z,58.54
2023-03-28T13:58:01.731Z,57.18
2023-03-28T14:00:29.096Z,56.28
2023-03-28T14:03:12.978Z,56.44
2023-03-28T14:05:45.582Z,56.32
2023-03-28T14:08:15.239Z,55.97
2023-03-28T14:10:43.722Z,54.54
2023-03-28T14:13:16.557Z,55.71
2023-03-28T14:15:44.516Z,54.47
2023-03-28T14:18:17.527Z,53.69
2023-03-28T14:20:46.793Z,53.15
2023-03-28T14:23:35.966Z,53.31
2023-03-28T14:26:07.222Z,53.18
2023-03-28T14:28:34.118Z,53.35
2023-03-28T14:31:01.096Z,52.65
2023-03-28T14:33:34.168Z,53.41
2023-03-28T14:36:03.906Z,52.97
2023-03-28T14:38:39.462Z,53.71
2023-03-28T14:41:07.828Z,53.13
2023-03-28T14:43:34.960Z,51.91
2023-03-28T14:46:06.112Z,52.91
2023-03-28T14:48:34.125Z,52.52
2023-03-28T14:51:03.812Z,51.23
2023-03-28T14:53:37.097Z,51.09
2023-03-28T14:56:10.392Z,50.29
2023-03-28T14:58:43.616Z,49.75
2023-03-28T15:01:13.438Z,49.27
2023-03-28T15:03:46.796Z,47.27
2023-03-28T15:06:16.545Z,47.54
2023-03-28T15:08:44.993Z,47.16
2023-03-28T15:11:16.886Z,47.51
2023-03-28T15:13:47.647Z,48.61
2023-03-28T15:16:24.356Z,47.44
2023-03-28T15:19:07.058Z,47.47
2023-03-28T15:21:39.164Z,48.14
2023-03-28T15:24:10.282Z,48.54
2023-03-28T15:26:41.969Z,46.36
2023-03-28T15:29:09.532Z,47.27
2023-03-28T15:31:40.636Z,47.10
2023-03-28T15:34:12.670Z,43.36
2023-03-28T15:36:48.706Z,41.24
2023-03-28T15:39:22.847Z,41.46
2023-03-28T15:42:21.421Z,41.06
2023-03-28T15:44:57.099Z,40.07
2023-03-28T15:47:27.363Z,39.90
2023-03-28T15:50:00.505Z,42.17
2023-03-28T15:52:29.685Z,40.74
2023-03-28T15:54:58.051Z,40.29
2023-03-28T15:57:29.666Z,40.78
2023-03-28T15:59:58.022Z,40.24
2023-03-28T16:02:24.507Z,40.72
2023-03-28T16:05:09.426Z,39.37
2023-03-28T16:07:47.932Z,40.36
2023-03-28T16:10:19.289Z,39.50
2023-03-28T16:12:46.877Z,40.04
2023-03-28T16:15:13.767Z,40.41
2023-03-28T16:17:44.950Z,40.32
2023-03-28T16:20:21.999Z,39.96
2023-03-28T16:22:49.096Z,40.36
2023-03-28T16:25:15.837Z,40.96
2023-03-28T16:27:42.865Z,40.79
2023-03-28T16:30:28.616Z,41.19
2023-03-28T16:32:55.823Z,40.90
2023-03-28T16:35:22.788Z,40.99
2023-03-28T16:37:49.311Z,40.99
2023-03-28T16:40:16.034Z,40.44
2023-03-28T16:42:42.712Z,41.32
2023-03-28T16:45:12.973Z,41.69
2023-03-28T16:47:40.631Z,41.70
2023-03-28T16:50:08.724Z,41.25
2023-03-28T16:52:38.962Z,41.68
2023-03-28T16:55:07.694Z,42.69
2023-03-28T16:57:34.119Z,42.07
2023-03-28T17:00:00.791Z,42.65
2023-03-28T17:02:27.296Z,43.12
2023-03-28T17:04:53.925Z,43.01
2023-03-28T17:07:21.081Z,44.08
2023-03-28T17:09:48.451Z,43.16
2023-03-28T17:12:14.856Z,43.73
2023-03-28T17:14:41.428Z,43.84
2023-03-28T17:17:08.391Z,44.18
2023-03-28T17:19:34.916Z,43.90
2023-03-28T17:22:10.382Z,44.18
2023-03-28T17:24:36.869Z,44.47
2023-03-28T17:27:03.490Z,45.25
2023-03-28T17:29:30.790Z,45.03
2023-03-28T17:31:57.394Z,45.98
2023-03-28T17:34:24.159Z,44.73
2023-03-28T17:36:51.496Z,45.58
2023-03-28T17:39:17.901Z,45.93
2023-03-28T17:41:44.478Z,45.77
2023-03-28T17:44:10.907Z,46.36
2023-03-28T17:46:37.680Z,45.94
2023-03-28T17:49:04.481Z,46.07
2023-03-28T17:51:31.178Z,46.54
2023-03-28T17:53:58.514Z,47.26
2023-03-28T17:56:25.612Z,47.22
2023-03-28T17:58:52.451Z,47.46
2023-03-28T18:01:19.618Z,47.65
2023-03-28T18:03:46.657Z,48.39
2023-03-28T18:06:13.879Z,48.29
2023-03-28T18:08:40.521Z,48.57
2023-03-28T18:11:09.855Z,49.17
2023-03-28T18:13:38.179Z,49.38
2023-03-28T18:16:10.449Z,49.81
2023-03-28T18:18:38.305Z,49.77
2023-03-28T18:21:05.390Z,49.83
2023-03-28T18:23:31.868Z,50.19
2023-03-28T18:25:58.717Z,50.50
2023-03-28T18:28:25.874Z,50.65
2023-03-28T18:30:53.379Z,50.39
2023-03-28T18:33:22.088Z,50.39
2023-03-28T18:35:49.434Z,50.47
2023-03-28T18:38:15.954Z,51.02
2023-03-28T18:40:42.498Z,50.89
2023-03-28T18:43:09.617Z,50.96
2023-03-28T18:45:36.720Z,51.48
2023-03-28T18:48:04.447Z,51.43
2023-03-28T18:50:31.561Z,51.11
2023-03-28T18:52:58.282Z,51.54
2023-03-28T18:55:24.810Z,51.69
2023-03-28T18:57:52.593Z,51.44
2023-03-28T19:00:19.965Z,51.90
2023-03-28T19:02:47.916Z,51.71
2023-03-28T19:05:17.871Z,52.06
2023-03-28T19:07:45.267Z,51.95
2023-03-28T19:10:13.359Z,52.33
2023-03-28T19:12:41.061Z,52.10
2023-03-28T19:15:10.502Z,52.07
2023-03-28T19:17:38.431Z,52.11
2023-03-28T19:20:07.477Z,52.25
2023-03-28T19:22:35.129Z,52.29
2023-03-28T19:25:01.812Z,52.34
2023-03-28T19:27:28.352Z,53.10
2023-03-28T19:29:55.229Z,53.44
2023-03-28T19:32:21.687Z,52.75
2023-03-28T19:34:48.275Z,52.78
2023-03-28T19:37:14.771Z,53.10
2023-03-28T19:39:41.221Z,52.55
2023-03-28T19:42:07.855Z,52.17
2023-03-28T19:44:34.337Z,52.95
2023-03-28T19:47:00.935Z,53.41
2023-03-28T19:49:27.397Z,52.17
2023-03-28T19:51:54.516Z,52.88
2023-03-28T19:54:21.609Z,52.65
2023-03-28T19:56:48.627Z,52.25
2023-03-28T19:59:15.157Z,52.77
2023-03-28T20:01:41.651Z,52.12
2023-03-28T20:04:08.350Z,52.93
2023-03-28T20:06:34.936Z,52.66
2023-03-28T20:09:01.618Z,53.24
2023-03-28T20:11:28.946Z,52.56
2023-03-28T20:13:55.636Z,52.44
2023-03-28T20:16:22.186Z,52.44
2023-03-28T20:18:48.842Z,52.15
2023-03-28T20:21:15.354Z,52.08
2023-03-28T20:23:42.475Z,51.96
2023-03-28T20:26:20.064Z,52.73
2023-03-28T20:28:50.378Z,52.92
2023-03-28T20:31:18.222Z,52.65
2023-03-28T20:33:45.361Z,52.45
2023-03-28T20:36:12.159Z,53.10
2023-03-28T20:38:38.687Z,52.37
2023-03-28T20:41:10.840Z,52.11
2023-03-28T20:43:40.589Z,52.02
2023-03-28T20:46:09.573Z,51.78
2023-03-28T20:48:36.828Z,51.88
2023-03-28T20:51:13.950Z,52.57
2023-03-28T20:53:49.423Z,52.55
2023-03-28T20:56:17.546Z,52.26
2023-03-28T20:58:44.178Z,52.12
2023-03-28T21:01:12.882Z,52.08
2023-03-28T21:03:50.969Z,52.24
2023-03-28T21:06:23.303Z,52.35
2023-03-28T21:08:51.774Z,51.98
2023-03-28T21:11:22.192Z,52.32
2023-03-28T21:13:49.592Z,51.97
2023-03-28T21:16:17.236Z,51.92
2023-03-28T21:18:44.579Z,52.27
2023-03-28T21:21:13.346Z,52.76
2023-03-28T21:23:41.072Z,51.81
2023-03-28T21:26:11.159Z,52.12
2023-03-28T21:28:38.407Z,52.25
2023-03-28T21:31:10.798Z,51.76
2023-03-28T21:33:38.518Z,52.03
2023-03-28T21:36:07.371Z,52.73
2023-03-28T21:38:34.751Z,52.04
2023-03-28T21:41:03.867Z,52.15
2023-03-28T21:43:30.572Z,51.57
2023-03-28T21:45:57.330Z,52.40
2023-03-28T21:48:23.865Z,52.22
2023-03-28T21:50:53.663Z,52.26
2023-03-28T21:53:21.605Z,51.70
2023-03-28T21:55:48.809Z,51.86
2023-03-28T21:58:15.597Z,52.06
2023-03-28T22:00:42.195Z,52.05
2023-03-28T22:03:08.938Z,52.15
2023-03-28T22:05:42.889Z,52.78
2023-03-28T22:08:12.400Z,52.49
2023-03-28T22:10:48.298Z,52.77
2023-03-28T22:13:14.875Z,52.41
2023-03-28T22:15:42.082Z,52.76
2023-03-28T22:18:09.303Z,52.82
2023-03-28T22:20:38.211Z,53.05
2023-03-28T22:23:05.576Z,53.26
2023-03-28T22:25:35.773Z,54.60
2023-03-28T22:28:03.957Z,55.26
2023-03-28T22:30:31.710Z,56.73
2023-03-28T22:32:58.299Z,57.48
2023-03-28T22:35:25.277Z,58.04
2023-03-28T22:37:52.057Z,59.58
2023-03-28T22:40:18.927Z,60.44
2023-03-28T22:42:45.508Z,61.76
2023-03-28T22:45:12.044Z,62.15
2023-03-28T22:47:42.044Z,63.08
2023-03-28T22:50:11.346Z,64.05
2023-03-28T22:52:38.871Z,64.55
2023-03-28T22:55:06.285Z,65.38
2023-03-28T22:57:33.008Z,65.95
2023-03-28T23:00:00.092Z,66.17
2023-03-28T23:02:27.074Z,66.64
2023-03-28T23:04:54.287Z,66.64
2023-03-28T23:07:20.876Z,67.05
2023-03-28T23:09:47.875Z,67.59
2023-03-28T23:12:14.340Z,67.82
2023-03-28T23:14:41.242Z,68.29
2023-03-28T23:17:09.829Z,68.35
2023-03-28T23:19:36.963Z,68.43
2023-03-28T23:22:04.229Z,68.35
2023-03-28T23:24:30.643Z,68.63
2023-03-28T23:26:57.209Z,69.08
2023-03-28T23:29:24.560Z,68.98
2023-03-28T23:31:51.074Z,69.26
2023-03-28T23:34:20.624Z,69.36
2023-03-28T23:36:47.280Z,69.10
2023-03-28T23:39:14.476Z,69.26
2023-03-28T23:41:41.371Z,69.45
2023-03-28T23:44:08.341Z,69.53
2023-03-28T23:46:35.667Z,70.02
2023-03-28T23:49:02.526Z,69.97
2023-03-28T23:51:29.273Z,70.02
2023-03-28T23:53:56.258Z,69.58
2023-03-28T23:56:23.894Z,69.68
2023-03-28T23:58:50.721Z,69.84
